Terminal Aerodrome Forecast
Issued by NWS Wilmington, OH

Current Version | Previous Version | Text Only | Print | Product List | Glossary Off
Versions: 1 2 3 4 5 6 7 8 9 10 11 12 13 14 15

000
FTUS41 KILN 030500
TAFDAY
TAF
KDAY 030533Z 0306/0406 06009KT P6SM BKN070
     FM031500 06008KT P6SM BKN040
     FM031800 04008KT P6SM VCSH BKN040
     FM040100 01005KT P6SM SCT040=

USA.gov is the U.S. government's official web portal to all federal, state and local government web resources and services.